SBGLSBKP

Guest
Details From SBGL - Galeão Antonio Carlos Jombim
To SBKP - Sao Paulo Viracopos
Flight Number -
Tags Generated
Created
Modified
Stats Distance 215 nm / 398 km
Max Altitude 0 ft / 0 m
Waypoints 2
Social Downloads 4
Likes 0
Share VATSIM

Download

Looking for another format? Having issues loading an existing format? Contact us
Advertisement - Login to hide

Notes

Generated

Route

SBGL SBKP

ID Type Via Altitude Latitude Longitude Leg Dist Tot Dist Heading (true) Name
O SBGL APT - 0 ft / 0 m -22.81244˚ -43.26360˚ - 0 nm - -
O SBKP APT - 0 ft / 0 m -22.99843˚ -47.14702˚ 215 nm 215 nm 266° / 268° -

Altitude Profile

Advertisement - Login to hide

Weather


0- 5 10 15 20 25 30 35+ Temperature / ° C

Clouds and Precipitation
Forecast for 2017-12-16 06:00 UTC. Updated 42 minutes ago

Ground ~20,000 ft ~40,000 ft Winds

SBGL

Details ICAO SBGL (GIG)
Name Galeao Antonio Carlos Jombim
Region Brazil
Timezone America/Sao_Paulo (UTC-2.0)
Stats Elevation 28 ft / 9 m (AMSL)
Location -22.808938° -43.243681°
Runways 2
Magnetic Variation 22.768° W

METAR

SBGL 160600Z 10005KT CAVOK 24/21 Q1011

Decode

TAF

Not found

Departure Runways

ID Width Length Bearing (true) Bearing (mag) Surface Threshold Offset Overrun Length
10 148 ft / 45 m 13,128 ft / 4,001 m 74.39° 97.16° Concrete 0 ft / 0 m 175 ft / 53 m
15 154 ft / 47 m 10,418 ft / 3,175 m 125.78° 148.55° Asphalt 0 ft / 0 m 185 ft / 56 m
28 148 ft / 45 m 13,128 ft / 4,001 m 254.38° 277.15° Concrete 0 ft / 0 m 175 ft / 53 m
33 154 ft / 47 m 10,418 ft / 3,175 m 305.78° 328.55° Asphalt 0 ft / 0 m 185 ft / 56 m

SBKP

Details ICAO SBKP (VCP)
Name Sao Paulo Viracopos
Region Brazil
Timezone America/Sao_Paulo (UTC-2.0)
Stats Elevation 2,170 ft / 661 m (AMSL)
Location -23.007383° -47.134522°
Runways 1
Magnetic Variation 21.195° W

METAR

SBKP 160600Z 12006KT 9999 FEW040 SCT060 22/17 Q1014

Decode

TAF

Not found

Destination Runways

ID Width Length Bearing (true) Bearing (mag) Surface Threshold Offset Overrun Length
15 148 ft / 45 m 10,639 ft / 3,243 m 127.91° 149.11° Asphalt 0 ft / 0 m 205 ft / 62 m
33 148 ft / 45 m 10,639 ft / 3,243 m 307.90° 329.10° Asphalt 0 ft / 0 m 205 ft / 62 m

Approach Navaids

Runway Type Ident Frequency Range Bearing (true) Bearing (mag) Slope Elevation
15 Localiser IKP 110.30 MHz 18 nm / 33 km 127.95° 149.15° - 2,170 ft / 661 m (AMSL)
15 Glidescope IKP 110.30 MHz 10 nm / 19 km 127.90° 149.10° 3.00° 2,170 ft / 661 m (AMSL)

Popular Alternatives